Hondo, Texas
Current Conditions -  °F | °C
As of 12:51 AM on Friday 31 Oct 2014 (Local Time) from KHDO Reporting Station
Clear Clear  
Wind Chill: 19°   Ceiling: Unl
Heat Index: 19°   Visibility: 10mi
Dew Point: 17°   Wind: 5mph
Humidity: 84%   Direction: 110°ESE
Pressure: 30.13"   Gusts: NA
Location:  29.35°N, 99.14°W
Report Text: KHDO 310551Z AUTO 11004KT 10SM CLR 19/17 A3013 RMK AO2 SLP189 T01940167 10250 20194 402830144 51009
Loading
Personal Weather Stations






























Interactive Weather Map
Tropical Storm Tracking
New forecast layout! Learn more

10-Day Weather Forecast

Advertisements
Track Severe Weather on mobile